Time;durP1;ratioP1;P1;durP2;ratioP2;P2;SDS_P1;SDS_P2;PMS_P1;PMS_P2;Temp;Humidity;BMP_temperature;BMP_pressure;BME280_temperature;BME280_humidity;BME280_pressure;Samples;Min_cycle;Max_cycle;Signal;HPM_P1;HPM_P2
2022/05/09 00:01:40;;;;;;;12.85;2.20;;;;;;;-145.50;100.00;65435.88;5076748;28;20028;-68
2022/05/09 00:04:07;;;;;;;8.65;2.40;;;;;;;-145.50;100.00;65435.88;5057800;28;20052;-67
2022/05/09 00:06:33;;;;;;;14.10;2.50;;;;;;;-145.50;100.00;65435.88;5057898;28;20053;-67
2022/05/09 00:09:00;;;;;;;10.57;2.65;;;;;;;-145.50;100.00;65435.88;5063348;28;20063;-65
2022/05/09 00:11:26;;;;;;;8.88;2.20;;;;;;;-145.50;100.00;65435.88;5066009;28;20396;-67
2022/05/09 00:13:53;;;;;;;7.63;2.50;;;;;;;-145.50;100.00;65435.88;5066745;28;20059;-66
2022/05/09 00:16:20;;;;;;;8.40;2.40;;;;;;;-145.50;100.00;65435.88;5055184;28;20425;-66
2022/05/09 00:18:47;;;;;;;11.43;2.60;;;;;;;-145.50;100.00;65435.88;5060380;28;20861;-67
2022/05/09 00:21:14;;;;;;;11.63;2.72;;;;;;;-145.50;100.00;65435.88;5079761;28;20512;-66
2022/05/09 00:23:40;;;;;;;10.95;2.60;;;;;;;-145.50;100.00;65435.88;5075649;28;20126;-66
2022/05/09 00:26:07;;;;;;;9.20;2.90;;;;;;;-145.50;100.00;65435.88;5077590;28;20055;-67
2022/05/09 00:28:34;;;;;;;9.30;2.08;;;;;;;-145.50;100.00;65435.88;5067018;28;20048;-65
2022/05/09 00:31:01;;;;;;;7.35;2.17;;;;;;;-145.50;100.00;65435.88;5081896;28;20052;-66
2022/05/09 00:33:28;;;;;;;11.68;2.60;;;;;;;-145.50;100.00;65435.88;5070824;28;20048;-65
2022/05/09 00:35:54;;;;;;;11.60;2.65;;;;;;;-145.50;100.00;65435.88;5074798;28;20591;-65
2022/05/09 00:38:21;;;;;;;10.63;2.60;;;;;;;-145.50;100.00;65435.88;5066457;28;20048;-66
2022/05/09 00:43:37;;;;;;;12.25;3.20;;;;;;;-145.50;100.00;65435.88;5076812;28;20059;-67
2022/05/09 00:46:04;;;;;;;9.68;2.63;;;;;;;-145.50;100.00;65435.88;5055839;28;20494;-68
2022/05/09 00:48:31;;;;;;;11.13;2.90;;;;;;;-145.50;100.00;65435.88;5058659;28;20053;-67
2022/05/09 00:50:59;;;;;;;10.13;3.08;;;;;;;-145.50;100.00;65435.88;5054203;28;20048;-67
2022/05/09 00:53:29;;;;;;;13.15;2.75;;;;;;;-145.50;100.00;65435.88;5063503;28;20084;-66
2022/05/09 00:55:59;;;;;;;8.15;2.40;;;;;;;-145.50;100.00;65435.88;5054705;28;20086;-67
2022/05/09 00:58:35;;;;;;;13.88;2.63;;;;;;;-145.50;100.00;65435.88;5062982;28;20084;-66
2022/05/09 01:01:03;;;;;;;13.25;3.00;;;;;;;-145.50;100.00;65435.88;5051323;28;20070;-65
2022/05/09 01:03:38;;;;;;;14.38;3.35;;;;;;;-145.50;100.00;65435.88;5076403;28;20104;-66
2022/05/09 01:06:05;;;;;;;13.52;2.72;;;;;;;-145.50;100.00;65435.88;5083305;28;20516;-65
2022/05/09 01:08:34;;;;;;;9.65;2.60;;;;;;;-145.50;100.00;65435.88;5075821;28;20799;-67
2022/05/09 01:11:09;;;;;;;13.20;2.42;;;;;;;-145.50;100.00;65435.88;5082708;28;20058;-66
2022/05/09 01:13:43;;;;;;;8.85;2.58;;;;;;;-145.50;100.00;65435.88;5073703;28;20056;-67
2022/05/09 01:16:10;;;;;;;7.45;2.05;;;;;;;-145.50;100.00;65435.88;5075335;28;20523;-66
2022/05/09 01:18:38;;;;;;;11.95;2.78;;;;;;;-145.50;100.00;65435.88;5075171;28;20105;-65
2022/05/09 01:21:28;;;;;;;12.48;2.60;;;;;;;-145.50;100.00;65435.88;5084216;28;20056;-66
2022/05/09 01:23:54;;;;;;;12.65;2.88;;;;;;;-145.50;100.00;65435.88;5079201;28;20142;-66
2022/05/09 01:26:21;;;;;;;16.27;3.30;;;;;;;-145.50;100.00;65435.88;5104003;28;20048;-66
2022/05/09 01:28:47;;;;;;;9.43;2.58;;;;;;;-145.50;100.00;65435.88;5104295;28;20057;-68
2022/05/09 01:31:16;;;;;;;11.05;2.28;;;;;;;-145.50;100.00;65435.88;5095463;28;20048;-66
2022/05/09 01:33:47;;;;;;;10.20;2.92;;;;;;;-145.50;100.00;65435.88;5104408;28;20055;-66
2022/05/09 01:36:20;;;;;;;13.88;2.70;;;;;;;-145.50;100.00;65435.88;5080840;28;20056;-66
2022/05/09 01:38:54;;;;;;;10.43;3.35;;;;;;;-145.50;100.00;65435.88;5078443;28;20056;-65
2022/05/09 01:41:20;;;;;;;9.85;2.80;;;;;;;-145.50;100.00;65435.88;5070155;28;20451;-67
2022/05/09 01:43:50;;;;;;;9.77;3.33;;;;;;;-145.50;100.00;65435.88;5082854;28;20052;-67
2022/05/09 01:46:23;;;;;;;9.45;2.75;;;;;;;-145.50;100.00;65435.88;5077959;28;20081;-67
2022/05/09 01:51:38;;;;;;;9.95;3.35;;;;;;;-145.50;100.00;65435.88;5078814;28;20363;-67
2022/05/09 01:54:05;;;;;;;8.50;2.78;;;;;;;-145.50;100.00;65435.88;5069263;28;20517;-67
2022/05/09 01:56:35;;;;;;;10.82;3.53;;;;;;;-145.50;100.00;65435.88;5082284;28;20052;-66
2022/05/09 01:59:04;;;;;;;10.40;2.72;;;;;;;-145.50;100.00;65435.88;5074239;28;20148;-67
2022/05/09 02:01:40;;;;;;;13.45;3.08;;;;;;;-145.50;100.00;65435.88;5083094;28;20052;-67
2022/05/09 02:04:07;;;;;;;14.75;2.72;;;;;;;-145.50;100.00;65435.88;5074512;28;20047;-67
2022/05/09 02:06:33;;;;;;;14.05;3.13;;;;;;;-145.50;100.00;65435.88;5077851;28;20063;-67
2022/05/09 02:09:00;;;;;;;8.75;2.78;;;;;;;-145.50;100.00;65435.88;5071373;28;20688;-67
2022/05/09 02:11:26;;;;;;;15.18;3.47;;;;;;;-145.50;100.00;65435.88;5062244;28;20147;-68
2022/05/09 02:13:53;;;;;;;12.43;3.10;;;;;;;-145.50;100.00;65435.88;5073877;28;20082;-67
2022/05/09 02:16:19;;;;;;;10.18;2.47;;;;;;;-145.50;100.00;65435.88;5068545;28;20500;-67
2022/05/09 02:18:46;;;;;;;13.07;3.00;;;;;;;-145.50;100.00;65435.88;5074260;28;20052;-67
2022/05/09 02:21:12;;;;;;;14.07;3.17;;;;;;;-145.50;100.00;65435.88;5050788;28;20134;-67
2022/05/09 02:23:39;;;;;;;11.77;2.95;;;;;;;-145.50;100.00;65435.88;5075995;28;20047;-65
2022/05/09 02:26:07;;;;;;;13.93;3.20;;;;;;;-145.50;100.00;65435.88;5061275;28;20070;-67
2022/05/09 02:28:33;;;;;;;12.02;3.30;;;;;;;-145.50;100.00;65435.88;5052514;28;20063;-66
2022/05/09 02:31:00;;;;;;;9.40;3.38;;;;;;;-145.50;100.00;65435.88;5060470;28;20521;-66
2022/05/09 02:33:26;;;;;;;16.42;3.60;;;;;;;-145.50;100.00;65435.88;5073528;28;20145;-66
2022/05/09 02:35:53;;;;;;;16.48;3.55;;;;;;;-145.50;100.00;65435.88;5067633;28;20390;-66
2022/05/09 02:38:20;;;;;;;10.82;3.13;;;;;;;-145.50;100.00;65435.88;5061485;28;20055;-67
2022/05/09 02:40:46;;;;;;;14.82;3.47;;;;;;;-145.50;100.00;65435.88;5068628;28;20056;-66
2022/05/09 02:43:13;;;;;;;11.80;2.97;;;;;;;-145.50;100.00;65435.88;5071061;28;20257;-66
2022/05/09 02:45:40;;;;;;;14.48;3.30;;;;;;;-145.50;100.00;65435.88;5054100;28;20056;-67
2022/05/09 02:48:08;;;;;;;17.08;3.47;;;;;;;-145.50;100.00;65435.88;5056950;28;20037;-66
2022/05/09 02:50:34;;;;;;;11.48;3.45;;;;;;;-145.50;100.00;65435.88;5048704;28;20373;-66
2022/05/09 02:53:01;;;;;;;11.88;3.25;;;;;;;-145.50;100.00;65435.88;5060538;28;20056;-66
2022/05/09 02:55:31;;;;;;;12.75;3.47;;;;;;;-145.50;100.00;65435.88;5053703;28;20044;-66
2022/05/09 02:57:58;;;;;;;11.70;3.28;;;;;;;-145.50;100.00;65435.88;5061275;28;20367;-66
2022/05/09 03:00:27;;;;;;;11.90;3.33;;;;;;;-145.50;100.00;65435.88;5070273;28;20058;-66
2022/05/09 03:05:40;;;;;;;9.98;3.60;;;;;;;-145.50;100.00;65435.88;5081729;28;20075;-66
2022/05/09 03:08:08;;;;;;;14.00;3.25;;;;;;;-145.50;100.00;65435.88;5072581;28;20078;-66
2022/05/09 03:10:36;;;;;;;14.27;3.60;;;;;;;-145.50;100.00;65435.88;5071924;28;20060;-66
2022/05/09 03:13:05;;;;;;;8.20;2.83;;;;;;;-145.50;100.00;65435.88;5055569;28;20132;-66
2022/05/09 03:15:34;;;;;;;;;;;;;;;-145.50;100.00;65435.88;5066749;28;20541;-65
2022/05/09 03:18:00;;;;;;;9.68;3.35;;;;;;;-145.50;100.00;65435.88;5080675;28;19924;-66
2022/05/09 03:20:27;;;;;;;12.32;3.53;;;;;;;-145.50;100.00;65435.88;5056938;28;20056;-67
2022/05/09 03:22:54;;;;;;;10.70;4.15;;;;;;;-145.50;100.00;65435.88;5060965;28;20052;-66
2022/05/09 03:25:21;;;;;;;17.60;3.20;;;;;;;-145.50;100.00;65435.88;5054684;28;20052;-66
2022/05/09 03:27:47;;;;;;;12.93;3.10;;;;;;;-145.50;100.00;65435.88;5052593;28;20059;-66
2022/05/09 03:30:15;;;;;;;17.75;3.97;;;;;;;-145.50;100.00;65435.88;5056312;28;20515;-66
2022/05/09 03:32:41;;;;;;;15.20;3.65;;;;;;;-145.50;100.00;65435.88;5064689;28;20055;-66
2022/05/09 03:35:10;;;;;;;14.55;4.00;;;;;;;-145.50;100.00;65435.88;5064124;28;20051;-65
2022/05/09 03:37:37;;;;;;;11.20;2.97;;;;;;;-145.50;100.00;65435.88;5053030;28;20088;-65
2022/05/09 03:40:05;;;;;;;12.57;3.42;;;;;;;-145.50;100.00;65435.88;5058966;28;20421;-65
2022/05/09 03:42:32;;;;;;;16.27;3.55;;;;;;;-145.50;100.00;65435.88;5067448;28;20051;-66
2022/05/09 03:44:59;;;;;;;13.88;3.63;;;;;;;-145.50;100.00;65435.88;5085736;28;20051;-66
2022/05/09 03:47:25;;;;;;;8.60;3.38;;;;;;;-145.50;100.00;65435.88;5075857;28;20052;-67
2022/05/09 03:49:54;;;;;;;17.73;3.80;;;;;;;-145.50;100.00;65435.88;5072766;28;20056;-66
2022/05/09 03:52:21;;;;;;;8.27;2.88;;;;;;;-145.50;100.00;65435.88;5072426;28;20052;-65
2022/05/09 03:54:47;;;;;;;12.02;3.08;;;;;;;-145.50;100.00;65435.88;5060860;28;20060;-66
2022/05/09 03:57:14;;;;;;;17.17;3.53;;;;;;;-145.50;100.00;65435.88;5063693;28;20055;-66
2022/05/09 03:59:41;;;;;;;11.27;3.60;;;;;;;-145.50;100.00;65435.88;5059732;28;20047;-65
2022/05/09 04:02:08;;;;;;;13.40;3.88;;;;;;;-145.50;100.00;65435.88;5080484;28;20056;-66
2022/05/09 04:04:34;;;;;;;15.77;3.72;;;;;;;-145.50;100.00;65435.88;5062674;28;20388;-66
2022/05/09 04:07:01;;;;;;;14.35;3.80;;;;;;;-145.50;100.00;65435.88;5058061;28;20056;-66
2022/05/09 04:09:27;;;;;;;13.50;3.63;;;;;;;-145.50;100.00;65435.88;5068233;28;20054;-66
2022/05/09 04:11:53;;;;;;;17.40;4.78;;;;;;;-145.50;100.00;65435.88;5058302;28;20048;-65
2022/05/09 04:16:49;;;;;;;18.02;3.72;;;;;;;-145.50;100.00;65435.88;5072421;28;20515;-67
2022/05/09 04:17:08;;;;;;;12.40;4.15;;;;;;;-145.50;100.00;65435.88;5056161;28;20266;-66
2022/05/09 04:19:35;;;;;;;15.60;3.92;;;;;;;-145.50;100.00;65435.88;5062402;28;20053;-66
2022/05/09 04:22:02;;;;;;;14.38;4.40;;;;;;;-145.50;100.00;65435.88;5051605;28;20376;-66
2022/05/09 04:24:33;;;;;;;13.57;3.90;;;;;;;-145.50;100.00;65435.88;5064391;28;20063;-66
2022/05/09 04:27:00;;;;;;;13.02;3.83;;;;;;;-145.50;100.00;65435.88;5059776;28;20131;-66
2022/05/09 04:29:27;;;;;;;11.88;3.40;;;;;;;-145.50;100.00;65435.88;5069662;28;20075;-65
2022/05/09 04:31:54;;;;;;;9.02;4.15;;;;;;;-145.50;100.00;65435.88;5060997;28;20111;-64
2022/05/09 04:34:21;;;;;;;13.52;3.60;;;;;;;-145.50;100.00;65435.88;5061734;28;20075;-66
2022/05/09 04:36:47;;;;;;;18.05;3.97;;;;;;;-145.50;100.00;65435.88;5068372;28;20063;-66
2022/05/09 04:39:15;;;;;;;11.63;3.72;;;;;;;-145.50;100.00;65435.88;5067603;28;20059;-66
2022/05/09 04:41:42;;;;;;;14.70;4.07;;;;;;;-145.50;100.00;65435.88;5079355;28;20139;-66
2022/05/09 04:44:08;;;;;;;9.30;3.55;;;;;;;-145.50;100.00;65435.88;5076405;28;20052;-68
2022/05/09 04:46:35;;;;;;;15.48;4.20;;;;;;;-145.50;100.00;65435.88;5060954;28;20502;-66
2022/05/09 04:49:01;;;;;;;11.30;3.72;;;;;;;-145.50;100.00;65435.88;5077194;28;20501;-66
2022/05/09 04:51:28;;;;;;;19.23;4.20;;;;;;;-145.50;100.00;65435.88;5075129;28;20056;-66
2022/05/09 04:53:54;;;;;;;17.33;4.18;;;;;;;-145.50;100.00;65435.88;5083237;28;20059;-66
2022/05/09 04:56:21;;;;;;;14.70;4.30;;;;;;;-145.50;100.00;65435.88;5062974;28;20053;-66
2022/05/09 04:58:47;;;;;;;13.85;4.22;;;;;;;-145.50;100.00;65435.88;5083056;28;20288;-66
2022/05/09 05:01:15;;;;;;;10.77;3.83;;;;;;;-145.50;100.00;65435.88;5068704;28;20994;-66
2022/05/09 05:03:42;;;;;;;12.52;4.00;;;;;;;-145.50;100.00;65435.88;5077589;28;20052;-68
2022/05/09 05:06:08;;;;;;;14.27;3.55;;;;;;;-145.50;100.00;65435.88;5082908;28;20062;-66
2022/05/09 05:08:35;;;;;;;10.40;3.65;;;;;;;-145.50;100.00;65435.88;5077009;28;20622;-66
2022/05/09 05:11:03;;;;;;;15.20;4.68;;;;;;;-145.50;100.00;65435.88;5074573;28;20055;-65
2022/05/09 05:13:33;;;;;;;15.90;4.35;;;;;;;-145.50;100.00;65435.88;5059744;28;20059;-66
2022/05/09 05:16:00;;;;;;;15.90;4.28;;;;;;;-145.50;100.00;65435.88;5056446;28;20131;-66
2022/05/09 05:18:27;;;;;;;13.35;4.20;;;;;;;-145.50;100.00;65435.88;5062421;28;20638;-66
2022/05/09 05:20:55;;;;;;;14.52;3.88;;;;;;;-145.50;100.00;65435.88;5081889;28;20052;-66
2022/05/09 05:23:21;;;;;;;12.43;4.03;;;;;;;-145.50;100.00;65435.88;5083550;28;20128;-66
2022/05/09 05:25:48;;;;;;;14.25;4.40;;;;;;;-145.50;100.00;65435.88;5074733;28;20436;-66
2022/05/09 05:28:16;;;;;;;12.35;4.13;;;;;;;-145.50;100.00;65435.88;5057772;28;20347;-66
2022/05/09 05:30:43;;;;;;;10.18;3.95;;;;;;;-145.50;100.00;65435.88;5051109;28;20043;-65
2022/05/09 05:33:10;;;;;;;10.85;4.10;;;;;;;-145.50;100.00;65435.88;5063740;28;20052;-65
2022/05/09 05:35:36;;;;;;;15.10;4.53;;;;;;;-145.50;100.00;65435.88;5058490;28;20365;-66
2022/05/09 05:38:03;;;;;;;12.70;3.92;;;;;;;-145.50;100.00;65435.88;5063042;28;20603;-66
2022/05/09 05:40:29;;;;;;;12.45;4.85;;;;;;;-145.50;100.00;65435.88;5068139;28;20515;-68
2022/05/09 05:42:56;;;;;;;16.10;4.72;;;;;;;-145.50;100.00;65435.88;5079819;28;20496;-66
2022/05/09 05:45:23;;;;;;;13.23;5.88;;;;;;;-145.50;100.00;65435.88;5103520;28;20374;-66
2022/05/09 05:47:51;;;;;;;10.82;4.63;;;;;;;-145.50;100.00;65435.88;5095477;28;20052;-65
2022/05/09 05:50:22;;;;;;;15.70;4.22;;;;;;;-145.50;100.00;65435.88;5099463;28;20051;-66
2022/05/09 05:52:49;;;;;;;13.93;4.03;;;;;;;-145.50;100.00;65435.88;5055602;28;20155;-66
2022/05/09 05:55:19;;;;;;;12.95;4.47;;;;;;;-145.50;100.00;65435.88;5064682;28;20058;-66
2022/05/09 05:57:46;;;;;;;18.02;4.35;;;;;;;-145.50;100.00;65435.88;5064192;28;20052;-67
2022/05/09 06:00:21;;;;;;;14.60;3.92;;;;;;;-145.50;100.00;65435.88;5074673;28;20165;-66
2022/05/09 06:02:49;;;;;;;12.55;3.60;;;;;;;-145.50;100.00;65435.88;5080760;28;20591;-67
2022/05/09 06:05:18;;;;;;;10.15;4.32;;;;;;;-145.50;100.00;65435.88;5069731;28;20052;-67
2022/05/09 06:07:46;;;;;;;;;;;;;;;-145.50;100.00;65435.88;5074342;28;20098;-66
2022/05/09 06:10:15;;;;;;;17.85;5.03;;;;;;;-145.50;100.00;65435.88;5074211;28;20334;-66
2022/05/09 06:12:41;;;;;;;;;;;;;;;-145.50;100.00;65435.88;5080957;28;20202;-66
2022/05/09 06:17:59;;;;;;;14.13;4.05;;;;;;;-145.50;100.00;65435.88;5058880;28;20052;-66
2022/05/09 06:20:28;;;;;;;14.70;3.88;;;;;;;-145.50;100.00;65435.88;5076452;28;20052;-66
2022/05/09 06:22:56;;;;;;;13.85;4.15;;;;;;;-145.50;100.00;65435.88;5071928;28;20147;-66
2022/05/09 06:25:23;;;;;;;12.32;4.50;;;;;;;-145.50;100.00;65435.88;5081783;28;20232;-68
2022/05/09 06:27:50;;;;;;;12.43;3.95;;;;;;;-145.50;100.00;65435.88;5061485;28;20052;-66
2022/05/09 06:30:18;;;;;;;14.88;4.30;;;;;;;-145.50;100.00;65435.88;5067351;28;20126;-67
2022/05/09 06:32:44;;;;;;;12.97;3.83;;;;;;;-145.50;100.00;65435.88;5076909;28;20139;-66
2022/05/09 06:35:14;;;;;;;16.33;4.65;;;;;;;-145.50;100.00;65435.88;5064184;28;20048;-66
2022/05/09 06:37:41;;;;;;;19.15;5.45;;;;;;;-145.50;100.00;65435.88;5081170;28;20048;-66
2022/05/09 06:40:10;;;;;;;17.35;5.38;;;;;;;-145.50;100.00;65435.88;5060690;28;20060;-66
2022/05/09 06:42:36;;;;;;;12.55;4.07;;;;;;;-145.50;100.00;65435.88;5082348;28;20048;-66
2022/05/09 06:45:04;;;;;;;11.88;4.28;;;;;;;-145.50;100.00;65435.88;5060615;28;20599;-67
2022/05/09 06:47:30;;;;;;;16.33;4.22;;;;;;;-145.50;100.00;65435.88;5075798;28;20048;-66
2022/05/09 06:50:05;;;;;;;14.30;3.70;;;;;;;-145.50;100.00;65435.88;5076465;28;20501;-67
2022/05/09 06:52:34;;;;;;;15.45;4.28;;;;;;;-145.50;100.00;65435.88;5069249;28;20056;-67
2022/05/09 06:55:00;;;;;;;14.73;4.97;;;;;;;-145.50;100.00;65435.88;5076669;28;20084;-67
2022/05/09 06:57:27;;;;;;;9.52;4.55;;;;;;;-145.50;100.00;65435.88;5070846;28;20055;-67
2022/05/09 06:59:53;;;;;;;11.57;3.58;;;;;;;-145.50;100.00;65435.88;5058393;28;20044;-67
2022/05/09 07:02:20;;;;;;;10.50;3.53;;;;;;;-145.50;100.00;65435.88;5053612;28;20146;-68
2022/05/09 07:04:46;;;;;;;13.13;3.78;;;;;;;-145.50;100.00;65435.88;5079327;28;20058;-67
2022/05/09 07:07:13;;;;;;;14.77;4.60;;;;;;;-145.50;100.00;65435.88;5080974;28;20052;-67
2022/05/09 07:09:39;;;;;;;10.80;4.28;;;;;;;-145.50;100.00;65435.88;5065430;28;20948;-66
2022/05/09 07:12:07;;;;;;;11.63;4.03;;;;;;;-145.50;100.00;65435.88;5062732;28;20059;-66
2022/05/09 07:14:33;;;;;;;12.65;4.05;;;;;;;-145.50;100.00;65435.88;5055653;28;20056;-68
2022/05/09 07:17:00;;;;;;;11.95;4.30;;;;;;;-145.50;100.00;65435.88;5075125;28;20411;-68
2022/05/09 07:19:26;;;;;;;18.92;4.35;;;;;;;-145.50;100.00;65435.88;5054457;28;20052;-67
2022/05/09 07:21:53;;;;;;;11.85;4.25;;;;;;;-145.50;100.00;65435.88;5080685;28;20390;-66
2022/05/09 07:24:19;;;;;;;8.75;3.33;;;;;;;-145.50;100.00;65435.88;5078278;28;20053;-66
2022/05/09 07:26:46;;;;;;;8.57;3.65;;;;;;;-145.50;100.00;65435.88;5056449;28;20403;-67
2022/05/09 07:29:13;;;;;;;14.48;4.32;;;;;;;-145.50;100.00;65435.88;5075768;28;20052;-66
2022/05/09 07:31:39;;;;;;;9.13;3.70;;;;;;;-145.50;100.00;65435.88;5065560;28;20436;-66
2022/05/09 07:34:06;;;;;;;15.55;5.38;;;;;;;-145.50;100.00;65435.88;5080737;28;20139;-66
2022/05/09 07:36:33;;;;;;;14.88;4.47;;;;;;;-145.50;100.00;65435.88;5074257;28;20047;-65
2022/05/09 07:39:00;;;;;;;15.85;4.40;;;;;;;-145.50;100.00;65435.88;5080238;28;20052;-65
2022/05/09 07:41:27;;;;;;;13.48;4.18;;;;;;;-145.50;100.00;65435.88;5080552;28;20568;-65
2022/05/09 07:43:54;;;;;;;10.13;4.18;;;;;;;-145.50;100.00;65435.88;5058325;28;20048;-68
2022/05/09 07:46:22;;;;;;;9.35;3.38;;;;;;;-145.50;100.00;65435.88;5067671;28;20117;-66
2022/05/09 07:49:09;;;;;;;14.65;4.50;;;;;;;-145.50;100.00;65435.88;5072032;28;20535;-66
2022/05/09 07:51:37;;;;;;;6.78;2.50;;;;;;;-145.50;100.00;65435.88;5071092;28;20059;-66
2022/05/09 07:54:04;;;;;;;14.20;4.50;;;;;;;-145.50;100.00;65435.88;5071223;28;20461;-67
2022/05/09 07:56:35;;;;;;;10.75;3.45;;;;;;;-145.50;100.00;65435.88;5074787;28;20106;-66
2022/05/09 07:59:02;;;;;;;11.10;3.88;;;;;;;-145.50;100.00;65435.88;5067998;28;20047;-66
2022/05/09 08:01:28;;;;;;;14.55;3.95;;;;;;;-145.50;100.00;65435.88;5078667;28;20088;-66
2022/05/09 08:03:58;;;;;;;13.57;4.43;;;;;;;-145.50;100.00;65435.88;5079910;28;20048;-67
2022/05/09 08:06:25;;;;;;;12.68;4.32;;;;;;;-145.50;100.00;65435.88;5072293;28;20143;-67
2022/05/09 08:08:51;;;;;;;10.23;3.92;;;;;;;-145.50;100.00;65435.88;5078325;28;20052;-67
2022/05/09 08:11:18;;;;;;;15.88;5.20;;;;;;;-145.50;100.00;65435.88;5065967;28;20452;-66
2022/05/09 08:13:45;;;;;;;8.48;3.95;;;;;;;-145.50;100.00;65435.88;5074561;28;20047;-66
2022/05/09 08:16:14;;;;;;;14.25;4.78;;;;;;;-145.50;100.00;65435.88;5079505;28;20052;-66
2022/05/09 08:18:41;;;;;;;15.15;4.82;;;;;;;-145.50;100.00;65435.88;5063451;28;20079;-66
2022/05/09 08:21:09;;;;;;;15.45;4.43;;;;;;;-145.50;100.00;65435.88;5064511;28;20063;-65
2022/05/09 08:23:43;;;;;;;16.13;4.60;;;;;;;-145.50;100.00;65435.88;5050639;28;20129;-67
2022/05/09 08:26:11;;;;;;;13.82;4.40;;;;;;;-145.50;100.00;65435.88;5057367;28;20044;-67
2022/05/09 08:28:39;;;;;;;15.07;4.97;;;;;;;-145.50;100.00;65435.88;5073221;28;20051;-67
2022/05/09 08:31:06;;;;;;;12.02;5.05;;;;;;;-145.50;100.00;65435.88;5082070;28;20142;-68
2022/05/09 08:33:33;;;;;;;13.68;4.80;;;;;;;-145.50;100.00;65435.88;5084813;28;20052;-67
2022/05/09 08:36:02;;;;;;;18.10;4.93;;;;;;;-145.50;100.00;65435.88;5084465;28;20065;-67
2022/05/09 08:38:29;;;;;;;15.05;5.32;;;;;;;-145.50;100.00;65435.88;5099301;28;20052;-67
2022/05/09 08:41:07;;;;;;;13.80;4.90;;;;;;;-145.50;100.00;65435.88;5092213;28;20443;-67
2022/05/09 08:44:27;;;;;;;14.75;5.05;;;;;;;-145.50;100.00;65435.88;5093409;28;20079;-67
2022/05/09 08:47:05;;;;;;;14.18;4.55;;;;;;;-145.50;100.00;65435.88;4993647;28;20068;-67
2022/05/09 08:49:50;;;;;;;13.63;4.57;;;;;;;-145.50;100.00;65435.88;5072679;28;20044;-67
2022/05/09 08:52:29;;;;;;;16.90;5.18;;;;;;;-145.50;100.00;65435.88;5073211;28;20052;-67
2022/05/09 08:54:56;;;;;;;13.25;4.45;;;;;;;-145.50;100.00;65435.88;5073024;28;20052;-68
2022/05/09 08:57:28;;;;;;;8.90;3.95;;;;;;;-145.50;100.00;65435.88;5097084;28;20051;-68
2022/05/09 09:00:01;;;;;;;14.85;4.75;;;;;;;-145.50;100.00;65435.88;5104193;28;20389;-68
2022/05/09 09:02:40;;;;;;;9.82;3.88;;;;;;;-145.50;100.00;65435.88;5082296;28;20101;-68
2022/05/09 09:05:11;;;;;;;9.90;4.25;;;;;;;-145.50;100.00;65435.88;5098326;28;20482;-68
2022/05/09 09:07:43;;;;;;;11.48;4.78;;;;;;;-145.50;100.00;65435.88;5098172;28;20547;-68
2022/05/09 09:10:32;;;;;;;10.73;4.22;;;;;;;-145.50;100.00;65435.88;5084882;28;20494;-68
2022/05/09 09:13:36;;;;;;;10.73;3.65;;;;;;;-145.50;100.00;65435.88;5083010;28;20066;-68
2022/05/09 09:16:11;;;;;;;11.43;4.45;;;;;;;-145.50;100.00;65435.88;5089588;28;20098;-68
2022/05/09 09:19:15;;;;;;;14.85;3.85;;;;;;;-145.50;100.00;65435.88;5082898;28;20052;-68
2022/05/09 09:22:02;;;;;;;10.18;3.78;;;;;;;-145.50;100.00;65435.88;5071991;28;21563;-68
2022/05/09 09:24:57;;;;;;;12.35;4.00;;;;;;;-145.50;100.00;65435.88;5077297;28;20106;-67
2022/05/09 09:27:50;;;;;;;12.18;3.58;;;;;;;-145.50;100.00;65435.88;5073094;28;20056;-67
2022/05/09 09:30:22;;;;;;;14.50;3.53;;;;;;;-145.50;100.00;65435.88;5075636;28;20066;-67
2022/05/09 09:32:55;;;;;;;9.07;3.03;;;;;;;-145.50;100.00;65435.88;5073523;28;20044;-67
2022/05/09 09:35:41;;;;;;;12.95;4.05;;;;;;;-145.50;100.00;65435.88;5079801;28;20058;-68
2022/05/09 09:38:34;;;;;;;9.80;3.70;;;;;;;-145.50;100.00;65435.88;5078462;28;20048;-67
2022/05/09 09:41:23;;;;;;;10.48;3.80;;;;;;;-145.50;100.00;65435.88;5077059;28;20052;-68
2022/05/09 09:43:58;;;;;;;7.78;3.80;;;;;;;-145.50;100.00;65435.88;5073006;28;20056;-67
2022/05/09 09:46:24;;;;;;;11.52;3.90;;;;;;;-145.50;100.00;65435.88;5082508;28;20147;-67
2022/05/09 09:49:08;;;;;;;13.60;3.85;;;;;;;-145.50;100.00;65435.88;5062999;28;20064;-68
2022/05/09 09:51:46;;;;;;;9.05;3.65;;;;;;;-145.50;100.00;65435.88;5075979;28;20055;-67
2022/05/09 09:54:17;;;;;;;11.50;4.03;;;;;;;-145.50;100.00;65435.88;5077766;28;20056;-68
2022/05/09 09:56:44;;;;;;;9.68;3.95;;;;;;;-145.50;100.00;65435.88;5075079;28;20058;-68
2022/05/09 09:59:11;;;;;;;12.93;3.67;;;;;;;-145.50;100.00;65435.88;5066083;28;20040;-67
2022/05/09 10:01:37;;;;;;;9.15;2.63;;;;;;;-145.50;100.00;65435.88;5073845;28;20054;-68
2022/05/09 10:04:06;;;;;;;7.28;2.60;;;;;;;-145.50;100.00;65435.88;5074770;28;20355;-68
2022/05/09 10:06:33;;;;;;;8.95;2.33;;;;;;;-145.50;100.00;65435.88;5056503;28;20062;-66
2022/05/09 10:09:04;;;;;;;6.22;1.77;;;;;;;-145.50;100.00;65435.88;5082020;28;20555;-67
2022/05/09 10:11:31;;;;;;;8.32;2.70;;;;;;;-145.50;100.00;65435.88;5073761;28;20066;-67
2022/05/09 10:14:05;;;;;;;9.75;3.13;;;;;;;-145.50;100.00;65435.88;5075783;28;20385;-67
2022/05/09 10:16:35;;;;;;;10.68;3.25;;;;;;;-145.50;100.00;65435.88;5077121;28;20634;-67
2022/05/09 10:19:08;;;;;;;6.80;2.92;;;;;;;-145.50;100.00;65435.88;5069003;28;20055;-68
2022/05/09 10:24:48;;;;;;;11.15;3.63;;;;;;;-145.50;100.00;65435.88;5073200;28;20145;-68
2022/05/09 10:27:30;;;;;;;8.85;3.22;;;;;;;-145.50;100.00;65435.88;5080799;28;20105;-68
2022/05/09 10:30:00;;;;;;;12.38;4.25;;;;;;;-145.50;100.00;65435.88;5068763;28;20724;-68
2022/05/09 10:32:52;;;;;;;12.38;4.38;;;;;;;-145.50;100.00;65435.88;5076869;28;20052;-67
2022/05/09 10:35:25;;;;;;;9.82;3.60;;;;;;;-145.50;100.00;65435.88;5074326;28;20058;-68
2022/05/09 10:38:12;;;;;;;8.82;3.35;;;;;;;-145.50;100.00;65435.88;5082130;28;20125;-68
2022/05/09 10:40:43;;;;;;;14.23;3.50;;;;;;;-145.50;100.00;65435.88;5075490;28;20501;-68
2022/05/09 10:43:23;;;;;;;8.68;3.40;;;;;;;-145.50;100.00;65435.88;5078099;28;20221;-68
2022/05/09 10:45:52;;;;;;;10.73;3.35;;;;;;;-145.50;100.00;65435.88;5062656;28;20550;-67
2022/05/09 10:48:38;;;;;;;7.20;3.03;;;;;;;-145.50;100.00;65435.88;5098932;28;20099;-68
2022/05/09 10:51:11;;;;;;;7.43;3.00;;;;;;;-145.50;100.00;65435.88;5082752;28;20056;-67
2022/05/09 10:54:08;;;;;;;8.13;3.22;;;;;;;-145.50;100.00;65435.88;5059604;28;20056;-67
2022/05/09 10:56:44;;;;;;;8.60;2.97;;;;;;;-145.50;100.00;65435.88;5079463;28;20055;-68
2022/05/09 10:59:19;;;;;;;8.52;3.30;;;;;;;-145.50;100.00;65435.88;5071165;28;20171;-68
2022/05/09 11:01:56;;;;;;;10.10;2.72;;;;;;;-145.50;100.00;65435.88;5077193;28;20072;-68
2022/05/09 11:04:24;;;;;;;;;;;;;;;-145.50;100.00;65435.88;5063607;28;20055;-69
2022/05/09 11:07:07;;;;;;;10.80;3.05;;;;;;;-145.50;100.00;65435.88;5067051;28;20015;-66
2022/05/09 11:10:07;;;;;;;13.00;3.28;;;;;;;-145.50;100.00;65435.88;5071979;28;20078;-69
2022/05/09 11:12:54;;;;;;;9.02;3.17;;;;;;;-145.50;100.00;65435.88;5073649;28;20060;-67
2022/05/09 11:15:58;;;;;;;21.90;3.38;;;;;;;-145.50;100.00;65435.88;5059528;28;20051;-67
2022/05/09 11:19:06;;;;;;;7.53;2.80;;;;;;;-145.50;100.00;65435.88;5075697;28;20357;-67
2022/05/09 11:21:58;;;;;;;11.50;3.22;;;;;;;-145.50;100.00;65435.88;5051362;28;20058;-68
2022/05/09 11:24:52;;;;;;;17.27;2.85;;;;;;;-145.50;100.00;65435.88;5038461;28;20054;-68
2022/05/09 11:27:39;;;;;;;12.27;3.33;;;;;;;-145.50;100.00;65435.88;5049630;28;20087;-68
2022/05/09 11:30:20;;;;;;;11.43;2.67;;;;;;;-145.50;100.00;65435.88;5046504;28;20505;-67
2022/05/09 11:33:01;;;;;;;8.80;2.80;;;;;;;-145.50;100.00;65435.88;5052974;28;20544;-66
2022/05/09 11:35:35;;;;;;;9.05;3.30;;;;;;;-145.50;100.00;65435.88;5067049;28;20048;-70